San Juan Enterprise — WDD9563 — position and weather

sailwx.info

Track history (hours):
 
Tides and Currents Weather Stations Pressure Air Temp Water Temp Dewpoint Dewpoint Depression Visibility Wind Speed Wind Dir Waves Ship Positions

San Juan Enterprise

Owner: SAN JUAN MARINE FREIGHT CO LLC, ANACORTES, WA. More information available from US FCC via Universal Licensing System and Coast Guard Vessel Documentation Center.

Last reported at 2018-Apr-19 19:35 UTC. Time now 2018-Apr-20 16:45 UTC.
Position N 48°31' W 122°36'.

Length 28 m; draft 1.7 m.

Type: Cargo ship. MMSI: 367313160.

Date/timePositionNaut miles runAvg speedWind from/ knotsBaromVisibWave heightAir tempDewpointWater temp
2018-Apr-19 19:35N 48°31' W 122°36'0 3.5
2018-Apr-19 19:30N 48°31' W 122°36'0 0.0
2018-Apr-19 18:59N 48°31' W 122°36'1 1.1
2018-Apr-19 18:25N 48°31' W 122°36'0 0.0
2018-Apr-19 18:00N 48°31' W 122°36'0 0.0
2018-Apr-19 17:30N 48°31' W 122°36'3 6.1
2018-Apr-19 16:58N 48°34' W 122°35'4 9.2
2018-Apr-19 16:30N 48°39' W 122°36'1 1.2
2018-Apr-19 16:00N 48°39' W 122°35'0 0.0
2018-Apr-19 15:30N 48°39' W 122°35'0 0.0
2018-Apr-19 14:57N 48°39' W 122°35'0 0.0
2018-Apr-19 14:28N 48°39' W 122°35'1 3.2
2018-Apr-19 14:00N 48°38' W 122°36'4 8.6
2018-Apr-19 13:30N 48°33' W 122°35'2 0.2
2018-Apr-18 21:51N 48°31' W 122°36'1 3.2
2018-Apr-18 21:30N 48°31' W 122°38'5 9.1
2018-Apr-18 21:00N 48°32' W 122°45'4 8.3
2018-Apr-18 20:30N 48°33' W 122°51'4 7.3
2018-Apr-18 20:00N 48°33' W 122°56'3 5.2
2018-Apr-18 19:30N 48°32' W 122°60'0 0.0
2018-Apr-18 19:00N 48°32' W 122°60'0 0.0
2018-Apr-18 18:30N 48°32' W 122°60'0 0.0
2018-Apr-18 18:00N 48°32' W 122°60'0 0.0
2018-Apr-18 17:30N 48°32' W 122°60'2 3.3
2018-Apr-18 17:00N 48°33' W 122°58'4 8.4
2018-Apr-18 16:30N 48°34' W 122°52'4 7.9
2018-Apr-18 16:00N 48°32' W 122°47'5 9.1
2018-Apr-18 15:30N 48°32' W 122°41'3 3.8
2018-Apr-18 14:45N 48°31' W 122°36'0 0.0
2018-Apr-18 02:09N 48°31' W 122°36'0 0.0
2018-Apr-18 02:00N 48°31' W 122°36'0 0.0
2018-Apr-17 20:35N 48°31' W 122°36'0 0.0
2018-Apr-17 20:09N 48°31' W 122°36'0 0.0
2018-Apr-17 20:00N 48°31' W 122°36'0 0.0
2018-Apr-17 18:02N 48°31' W 122°36'0 0.0
2018-Apr-17 17:55N 48°31' W 122°36'0 0.0
2018-Apr-17 17:15N 48°31' W 122°36'0 0.0
2018-Apr-17 14:38N 48°31' W 122°36'0 0.0
2018-Apr-17 14:20N 48°31' W 122°36'0 0.0
2018-Apr-17 14:00N 48°31' W 122°36'0 0.0
2018-Apr-17 13:22N 48°31' W 122°36'0 0.0
2018-Apr-17 12:22N 48°31' W 122°36'0 0.0
2018-Apr-17 11:59N 48°31' W 122°36'0 0.0
2018-Apr-17 11:22N 48°31' W 122°36'0 0.0
2018-Apr-17 10:52N 48°31' W 122°36'0 0.0
2018-Apr-17 10:28N 48°31' W 122°36'0 0.0
2018-Apr-17 09:28N 48°31' W 122°36'0 0.0
2018-Apr-17 09:00N 48°31' W 122°36'0 0.0
2018-Apr-17 08:29N 48°31' W 122°36'0 0.0
2018-Apr-17 07:52N 48°31' W 122°36'0 0.0
2018-Apr-17 07:28N 48°31' W 122°36'0 0.0
2018-Apr-17 01:52N 48°31' W 122°36'0 0.0
2018-Apr-16 21:25N 48°31' W 122°36'0 0.0
2018-Apr-16 19:01N 48°31' W 122°36'0 0.0
2018-Apr-16 18:03N 48°31' W 122°36'0 0.0
2018-Apr-16 17:48N 48°31' W 122°36'0 0.0
2018-Apr-16 15:50N 48°31' W 122°36'0 0.0
2018-Apr-16 15:29N 48°31' W 122°36'0 0.0
2018-Apr-16 14:58N 48°31' W 122°36'0 0.0
2018-Apr-16 14:23N 48°31' W 122°36'0 0.0
2018-Apr-16 13:22N 48°31' W 122°36'0 0.0
2018-Apr-16 05:04N 48°31' W 122°36'0 0.0
2018-Apr-16 04:59N 48°31' W 122°36'0 0.0
2018-Apr-16 04:30N 48°31' W 122°36'0 0.0
2018-Apr-16 03:55N 48°31' W 122°36'0 0.0
2018-Apr-16 03:24N 48°31' W 122°36'0 0.0
2018-Apr-16 02:55N 48°31' W 122°36'0 0.0
2018-Apr-16 02:30N 48°31' W 122°36'0 0.0
2018-Apr-16 01:45N 48°31' W 122°36'0 0.0
2018-Apr-16 01:19N 48°31' W 122°36'0 0.0
2018-Apr-16 00:59N 48°31' W 122°36'0 0.0
2018-Apr-16 00:30N 48°31' W 122°36'0 0.0
2018-Apr-15 23:55N 48°31' W 122°36'0 0.0
2018-Apr-15 23:27N 48°31' W 122°36'0 0.0
2018-Apr-15 22:55N 48°31' W 122°36'0 0.0
2018-Apr-15 22:18N 48°31' W 122°36'0 0.0
2018-Apr-15 15:30N 48°31' W 122°36'0 0.0
2018-Apr-15 14:58N 48°31' W 122°36'0 0.0
2018-Apr-15 14:23N 48°31' W 122°36'0 0.0
2018-Apr-14 05:59N 48°31' W 122°36'0 0.0
2018-Apr-14 05:22N 48°31' W 122°36'0 0.0
2018-Apr-14 04:48N 48°31' W 122°36'0 0.0
2018-Apr-14 03:50N 48°31' W 122°36'0 0.0
2018-Apr-14 03:18N 48°31' W 122°36'0 0.0
2018-Apr-14 03:00N 48°31' W 122°36'0 0.0
2018-Apr-14 02:29N 48°31' W 122°36'0 0.0
2018-Apr-14 01:59N 48°31' W 122°36'0 0.0
2018-Apr-14 01:29N 48°31' W 122°36'0 0.0
2018-Apr-14 00:59N 48°31' W 122°36'0 0.0
2018-Apr-14 00:29N 48°31' W 122°36'0 0.0
2018-Apr-13 23:41N 48°31' W 122°36'0 0.0
2018-Apr-13 23:13N 48°31' W 122°36'0 0.0
2018-Apr-13 23:00N 48°31' W 122°36'0 0.0
2018-Apr-13 22:11N 48°31' W 122°36'0 0.0
2018-Apr-13 21:58N 48°31' W 122°36'0 0.0
2018-Apr-13 18:59N 48°31' W 122°36'0 0.0
2018-Apr-13 17:24N 48°31' W 122°36'0 0.0
2018-Apr-13 16:48N 48°31' W 122°36'0 0.0
2018-Apr-13 15:41N 48°31' W 122°36'0 0.0
2018-Apr-13 14:35N 48°31' W 122°36'0 0.0
2018-Apr-13 14:30N 48°31' W 122°36'0 0.0
2018-Apr-13 12:34N 48°31' W 122°36'0 0.0
2018-Apr-13 12:08N 48°31' W 122°36'0 0.0
2018-Apr-13 09:48N 48°31' W 122°36'0 0.0
2018-Apr-13 09:25N 48°31' W 122°36'0 0.0
2018-Apr-12 23:53N 48°31' W 122°36'0 0.1
2018-Apr-12 23:29N 48°31' W 122°36'4 8.2
2018-Apr-12 23:00N 48°32' W 122°42'4 7.8
2018-Apr-12 22:30N 48°34' W 122°47'2 3.2
2018-Apr-12 22:00N 48°35' W 122°49'5 1.7
2018-Apr-12 19:17N 48°32' W 122°44'2 8.6
2018-Apr-12 19:00N 48°32' W 122°40'  
Track history (hours):
 
Tides and Currents Weather Stations Pressure Air Temp Water Temp Dewpoint Dewpoint Depression Visibility Wind Speed Wind Dir Waves Ship Positions

San Juan Enterprise

Owner: SAN JUAN MARINE FREIGHT CO LLC, ANACORTES, WA. More information available from US FCC via Universal Licensing System and Coast Guard Vessel Documentation Center.

Last reported at 2018-Apr-19 19:35 UTC. Time now 2018-Apr-20 16:45 UTC.
Position N 48°31' W 122°36'.

Length 28 m; draft 1.7 m.

Type: Cargo ship. MMSI: 367313160.

Date/timePositionNaut miles runAvg speedWind from/ knotsBaromVisibWave heightAir tempDewpointWater temp
2018-Apr-19 19:35N 48°31' W 122°36'0 3.5
2018-Apr-19 19:30N 48°31' W 122°36'0 0.0
2018-Apr-19 18:59N 48°31' W 122°36'1 1.1
2018-Apr-19 18:25N 48°31' W 122°36'0 0.0
2018-Apr-19 18:00N 48°31' W 122°36'0 0.0
2018-Apr-19 17:30N 48°31' W 122°36'3 6.1
2018-Apr-19 16:58N 48°34' W 122°35'4 9.2
2018-Apr-19 16:30N 48°39' W 122°36'1 1.2
2018-Apr-19 16:00N 48°39' W 122°35'0 0.0
2018-Apr-19 15:30N 48°39' W 122°35'0 0.0
2018-Apr-19 14:57N 48°39' W 122°35'0 0.0
2018-Apr-19 14:28N 48°39' W 122°35'1 3.2
2018-Apr-19 14:00N 48°38' W 122°36'4 8.6
2018-Apr-19 13:30N 48°33' W 122°35'2 0.2
2018-Apr-18 21:51N 48°31' W 122°36'1 3.2
2018-Apr-18 21:30N 48°31' W 122°38'5 9.1
2018-Apr-18 21:00N 48°32' W 122°45'4 8.3
2018-Apr-18 20:30N 48°33' W 122°51'4 7.3
2018-Apr-18 20:00N 48°33' W 122°56'3 5.2
2018-Apr-18 19:30N 48°32' W 122°60'0 0.0
2018-Apr-18 19:00N 48°32' W 122°60'0 0.0
2018-Apr-18 18:30N 48°32' W 122°60'0 0.0
2018-Apr-18 18:00N 48°32' W 122°60'0 0.0
2018-Apr-18 17:30N 48°32' W 122°60'2 3.3
2018-Apr-18 17:00N 48°33' W 122°58'4 8.4
2018-Apr-18 16:30N 48°34' W 122°52'4 7.9
2018-Apr-18 16:00N 48°32' W 122°47'5 9.1
2018-Apr-18 15:30N 48°32' W 122°41'3 3.8
2018-Apr-18 14:45N 48°31' W 122°36'0 0.0
2018-Apr-18 02:09N 48°31' W 122°36'0 0.0
2018-Apr-18 02:00N 48°31' W 122°36'0 0.0
2018-Apr-17 20:35N 48°31' W 122°36'0 0.0
2018-Apr-17 20:09N 48°31' W 122°36'0 0.0
2018-Apr-17 20:00N 48°31' W 122°36'0 0.0
2018-Apr-17 18:02N 48°31' W 122°36'0 0.0
2018-Apr-17 17:55N 48°31' W 122°36'0 0.0
2018-Apr-17 17:15N 48°31' W 122°36'0 0.0
2018-Apr-17 14:38N 48°31' W 122°36'0 0.0
2018-Apr-17 14:20N 48°31' W 122°36'0 0.0
2018-Apr-17 14:00N 48°31' W 122°36'0 0.0
2018-Apr-17 13:22N 48°31' W 122°36'0 0.0
2018-Apr-17 12:22N 48°31' W 122°36'0 0.0
2018-Apr-17 11:59N 48°31' W 122°36'0 0.0
2018-Apr-17 11:22N 48°31' W 122°36'0 0.0
2018-Apr-17 10:52N 48°31' W 122°36'0 0.0
2018-Apr-17 10:28N 48°31' W 122°36'0 0.0
2018-Apr-17 09:28N 48°31' W 122°36'0 0.0
2018-Apr-17 09:00N 48°31' W 122°36'0 0.0
2018-Apr-17 08:29N 48°31' W 122°36'0 0.0
2018-Apr-17 07:52N 48°31' W 122°36'0 0.0
2018-Apr-17 07:28N 48°31' W 122°36'0 0.0
2018-Apr-17 01:52N 48°31' W 122°36'0 0.0
2018-Apr-16 21:25N 48°31' W 122°36'0 0.0
2018-Apr-16 19:01N 48°31' W 122°36'0 0.0
2018-Apr-16 18:03N 48°31' W 122°36'0 0.0
2018-Apr-16 17:48N 48°31' W 122°36'0 0.0
2018-Apr-16 15:50N 48°31' W 122°36'0 0.0
2018-Apr-16 15:29N 48°31' W 122°36'0 0.0
2018-Apr-16 14:58N 48°31' W 122°36'0 0.0
2018-Apr-16 14:23N 48°31' W 122°36'0 0.0
2018-Apr-16 13:22N 48°31' W 122°36'0 0.0
2018-Apr-16 05:04N 48°31' W 122°36'0 0.0
2018-Apr-16 04:59N 48°31' W 122°36'0 0.0
2018-Apr-16 04:30N 48°31' W 122°36'0 0.0
2018-Apr-16 03:55N 48°31' W 122°36'0 0.0
2018-Apr-16 03:24N 48°31' W 122°36'0 0.0
2018-Apr-16 02:55N 48°31' W 122°36'0 0.0
2018-Apr-16 02:30N 48°31' W 122°36'0 0.0
2018-Apr-16 01:45N 48°31' W 122°36'0 0.0
2018-Apr-16 01:19N 48°31' W 122°36'0 0.0
2018-Apr-16 00:59N 48°31' W 122°36'0 0.0
2018-Apr-16 00:30N 48°31' W 122°36'0 0.0
2018-Apr-15 23:55N 48°31' W 122°36'0 0.0
2018-Apr-15 23:27N 48°31' W 122°36'0 0.0
2018-Apr-15 22:55N 48°31' W 122°36'0 0.0
2018-Apr-15 22:18N 48°31' W 122°36'0 0.0
2018-Apr-15 15:30N 48°31' W 122°36'0 0.0
2018-Apr-15 14:58N 48°31' W 122°36'0 0.0
2018-Apr-15 14:23N 48°31' W 122°36'0 0.0
2018-Apr-14 05:59N 48°31' W 122°36'0 0.0
2018-Apr-14 05:22N 48°31' W 122°36'0 0.0
2018-Apr-14 04:48N 48°31' W 122°36'0 0.0
2018-Apr-14 03:50N 48°31' W 122°36'0 0.0
2018-Apr-14 03:18N 48°31' W 122°36'0 0.0
2018-Apr-14 03:00N 48°31' W 122°36'0 0.0
2018-Apr-14 02:29N 48°31' W 122°36'0 0.0
2018-Apr-14 01:59N 48°31' W 122°36'0 0.0
2018-Apr-14 01:29N 48°31' W 122°36'0 0.0
2018-Apr-14 00:59N 48°31' W 122°36'0 0.0
2018-Apr-14 00:29N 48°31' W 122°36'0 0.0
2018-Apr-13 23:41N 48°31' W 122°36'0 0.0
2018-Apr-13 23:13N 48°31' W 122°36'0 0.0
2018-Apr-13 23:00N 48°31' W 122°36'0 0.0
2018-Apr-13 22:11N 48°31' W 122°36'0 0.0
2018-Apr-13 21:58N 48°31' W 122°36'0 0.0
2018-Apr-13 18:59N 48°31' W 122°36'0 0.0
2018-Apr-13 17:24N 48°31' W 122°36'0 0.0
2018-Apr-13 16:48N 48°31' W 122°36'0 0.0
2018-Apr-13 15:41N 48°31' W 122°36'0 0.0
2018-Apr-13 14:35N 48°31' W 122°36'0 0.0
2018-Apr-13 14:30N 48°31' W 122°36'0 0.0
2018-Apr-13 12:34N 48°31' W 122°36'0 0.0
2018-Apr-13 12:08N 48°31' W 122°36'0 0.0
2018-Apr-13 09:48N 48°31' W 122°36'0 0.0
2018-Apr-13 09:25N 48°31' W 122°36'0 0.0
2018-Apr-12 23:53N 48°31' W 122°36'0 0.1
2018-Apr-12 23:29N 48°31' W 122°36'4 8.2
2018-Apr-12 23:00N 48°32' W 122°42'4 7.8
2018-Apr-12 22:30N 48°34' W 122°47'2 3.2
2018-Apr-12 22:00N 48°35' W 122°49'5 1.7
2018-Apr-12 19:17N 48°32' W 122°44'2 8.6
2018-Apr-12 19:00N 48°32' W 122°40'  

Dump ship's entire track history